Time;durP1;ratioP1;P1;durP2;ratioP2;P2;SDS_P1;SDS_P2;PMS_P1;PMS_P2;Temp;Humidity;BMP_temperature;BMP_pressure;BME280_temperature;BME280_humidity;BME280_pressure;Samples;Min_cycle;Max_cycle;Signal;HPM_P1;HPM_P2
2021/08/28 00:00:55;;;;;;;2.58;1.50;;;;;;;10.45;83.35;96293.73;1800975;78;20906;-80
2021/08/28 00:03:21;;;;;;;2.45;1.25;;;;;;;10.40;83.43;96296.05;1799766;78;20955;-80
2021/08/28 00:05:47;;;;;;;1.30;0.70;;;;;;;10.38;83.51;96296.73;1803042;78;21060;-80
2021/08/28 00:08:13;;;;;;;3.52;1.00;;;;;;;10.36;83.53;96301.30;1809228;78;21399;-81
2021/08/28 00:10:39;;;;;;;1.45;0.90;;;;;;;10.35;83.63;96298.39;1798352;78;21031;-80
2021/08/28 00:13:05;;;;;;;1.00;0.80;;;;;;;10.39;83.76;96303.03;1761813;80;20977;-80
2021/08/28 00:15:30;;;;;;;2.00;1.27;;;;;;;10.40;83.74;96302.05;1761410;80;21285;-80
2021/08/28 00:17:56;;;;;;;1.30;0.98;;;;;;;10.35;83.82;96302.29;1803278;78;20937;-80
2021/08/28 00:20:22;;;;;;;1.42;1.10;;;;;;;10.34;83.67;96301.98;1796352;78;20972;-80
2021/08/28 00:22:48;;;;;;;1.95;1.05;;;;;;;10.34;83.73;96303.28;1802337;78;21350;-80
2021/08/28 00:25:13;;;;;;;1.40;0.85;;;;;;;10.37;83.67;96301.61;1797598;78;20905;-80
2021/08/28 00:27:39;;;;;;;3.17;1.22;;;;;;;10.37;83.55;96298.52;1794536;78;21051;-80
2021/08/28 00:30:07;;;;;;;2.65;1.10;;;;;;;10.38;83.78;96303.22;1758762;79;21339;-80
2021/08/28 00:32:32;;;;;;;3.50;1.55;;;;;;;10.34;83.65;96294.99;1802291;78;20961;-80
2021/08/28 00:34:58;;;;;;;1.57;1.00;;;;;;;10.35;83.71;96299.69;1800648;78;21391;-80
2021/08/28 00:37:24;;;;;;;3.20;1.20;;;;;;;10.34;83.74;96305.88;1759407;80;20970;-81
2021/08/28 00:39:49;;;;;;;2.50;0.80;;;;;;;10.32;83.61;96312.55;1761476;80;20934;-80
2021/08/28 00:42:15;;;;;;;4.15;1.22;;;;;;;10.33;83.35;96305.56;1760874;80;21375;-80
2021/08/28 00:44:42;;;;;;;2.17;0.98;;;;;;;10.35;83.64;96304.39;1762875;80;20960;-80
2021/08/28 00:47:08;;;;;;;2.37;1.10;;;;;;;10.37;83.60;96308.91;1760341;80;20939;-80
2021/08/28 00:49:34;;;;;;;1.17;0.85;;;;;;;10.40;83.64;96309.84;1760392;80;20950;-80
2021/08/28 00:52:02;;;;;;;1.50;0.90;;;;;;;10.41;83.47;96308.88;1753524;79;20967;-80
2021/08/28 00:54:31;;;;;;;2.00;1.07;;;;;;;10.44;83.54;96305.11;1760541;80;21029;-80
2021/08/28 00:56:57;;;;;;;1.27;0.90;;;;;;;10.44;83.46;96302.02;1760581;80;20970;-80
2021/08/28 00:59:23;;;;;;;1.10;1.00;;;;;;;10.51;83.44;96304.18;1707366;82;21406;-80
2021/08/28 01:01:49;;;;;;;1.72;0.80;;;;;;;10.55;83.02;96307.21;1710845;82;21005;-80
2021/08/28 01:04:19;;;;;;;0.80;0.80;;;;;;;10.60;83.13;96310.09;1709228;82;20938;-80
2021/08/28 01:06:52;;;;;;;1.20;0.90;;;;;;;10.60;83.02;96312.69;1768181;79;21044;-80
2021/08/28 01:09:30;;;;;;;1.25;1.07;;;;;;;10.60;83.20;96306.19;1763204;79;21434;-78
2021/08/28 01:12:07;;;;;;;3.67;0.80;;;;;;;10.61;82.60;96314.79;1766149;80;20925;-78
2021/08/28 01:14:34;;;;;;;1.40;0.72;;;;;;;10.67;82.57;96311.45;1757388;79;20988;-78
2021/08/28 01:17:07;;;;;;;3.12;0.90;;;;;;;10.69;83.03;96310.27;1767064;79;20960;-80
2021/08/28 01:19:58;;;;;;;1.30;0.80;;;;;;;10.65;82.67;96309.03;1729443;82;21411;-81
2021/08/28 01:22:24;;;;;;;1.55;0.70;;;;;;;10.64;82.90;96315.72;1730878;81;21036;-80
2021/08/28 01:24:49;;;;;;;2.47;0.80;;;;;;;10.61;82.72;96314.79;1712710;82;21016;-80
2021/08/28 01:27:45;;;;;;;1.20;0.80;;;;;;;10.63;82.93;96314.11;1705355;82;20921;-80
2021/08/28 01:30:11;;;;;;;0.93;0.70;;;;;;;10.62;82.84;96316.39;1766621;79;20988;-80
2021/08/28 01:32:37;;;;;;;1.75;0.82;;;;;;;10.60;82.77;96320.97;1767850;79;20925;-80
2021/08/28 01:35:04;;;;;;;1.55;0.90;;;;;;;10.57;82.83;96319.52;1769053;80;20995;-80
2021/08/28 01:37:30;;;;;;;0.98;0.70;;;;;;;10.55;82.92;96328.00;1766393;80;21028;-80
2021/08/28 01:39:58;;;;;;;0.65;0.60;;;;;;;10.51;82.96;96321.06;1767367;79;21365;-80
2021/08/28 01:42:24;;;;;;;2.00;0.70;;;;;;;10.48;83.18;96325.33;1745964;79;21346;-80
2021/08/28 01:44:51;;;;;;;1.10;0.60;;;;;;;10.48;83.11;96323.23;1768237;79;20972;-80
2021/08/28 01:47:18;;;;;;;3.05;1.00;;;;;;;10.49;83.20;96328.73;1765860;79;21347;-80
2021/08/28 01:49:45;;;;;;;0.68;0.68;;;;;;;10.49;82.98;96328.73;1767693;79;20940;-81
2021/08/28 01:52:11;;;;;;;1.60;0.60;;;;;;;10.46;83.01;96327.80;1770765;81;21056;-80
2021/08/28 01:54:37;;;;;;;1.07;0.80;;;;;;;10.43;83.23;96326.87;1771663;79;20913;-80
2021/08/28 01:57:03;;;;;;;1.37;0.45;;;;;;;10.41;83.24;96330.95;1766678;80;20936;-80
2021/08/28 01:59:30;;;;;;;0.60;0.40;;;;;;;10.38;83.20;96324.00;1779369;79;20995;-80
2021/08/28 02:01:55;;;;;;;0.70;0.70;;;;;;;10.35;82.98;96322.58;1815508;78;20995;-80
2021/08/28 02:04:21;;;;;;;0.78;0.62;;;;;;;10.34;83.01;96327.95;1814694;78;20896;-80
2021/08/28 02:06:59;;;;;;;1.82;0.70;;;;;;;10.32;83.05;96329.44;1812961;78;21043;-80
2021/08/28 02:09:51;;;;;;;0.90;0.75;;;;;;;10.29;83.10;96326.40;1812890;78;21324;-80
2021/08/28 02:12:37;;;;;;;1.62;0.50;;;;;;;10.23;83.16;96323.52;1813329;78;20988;-80
2021/08/28 02:15:12;;;;;;;0.80;0.50;;;;;;;10.19;83.14;96330.53;1814095;78;21378;-80
2021/08/28 02:17:49;;;;;;;0.62;0.40;;;;;;;10.19;83.29;96327.93;1809632;78;20979;-81
2021/08/28 02:20:15;;;;;;;1.00;0.65;;;;;;;10.20;83.35;96331.64;1781193;79;21024;-81
2021/08/28 02:22:46;;;;;;;1.20;0.60;;;;;;;10.20;83.34;96326.45;1807787;78;20904;-80
2021/08/28 02:25:52;;;;;;;1.37;0.60;;;;;;;10.19;83.66;96326.14;1800056;78;20977;-80
2021/08/28 02:28:25;;;;;;;0.60;0.50;;;;;;;10.18;83.72;96331.52;1705383;82;20992;-78
2021/08/28 02:30:51;;;;;;;1.20;0.40;;;;;;;10.16;83.75;96328.30;1789100;78;20964;-78
2021/08/28 02:33:17;;;;;;;0.57;0.40;;;;;;;10.17;83.65;96326.81;1808346;78;20919;-78
2021/08/28 02:35:42;;;;;;;1.92;0.60;;;;;;;10.17;83.56;96326.81;1761219;78;20940;-78
2021/08/28 02:38:08;;;;;;;0.57;0.47;;;;;;;10.18;83.49;96332.32;1812399;78;20988;-79
2021/08/28 02:40:34;;;;;;;0.40;0.40;;;;;;;10.18;83.51;96331.02;1816716;78;21350;-78
2021/08/28 02:43:00;;;;;;;1.72;0.50;;;;;;;10.16;83.56;96327.80;1813990;78;20928;-78
2021/08/28 02:45:28;;;;;;;0.62;0.50;;;;;;;10.15;83.62;96328.79;1815137;78;20928;-78
2021/08/28 02:47:54;;;;;;;0.62;0.40;;;;;;;10.14;83.58;96323.78;1814957;78;20893;-78
2021/08/28 02:50:19;;;;;;;0.53;0.40;;;;;;;10.14;83.67;96319.89;1810544;78;20933;-78
2021/08/28 02:52:47;;;;;;;0.50;0.40;;;;;;;10.14;83.60;96321.98;1809720;78;20909;-78
2021/08/28 02:55:13;;;;;;;2.45;0.50;;;;;;;10.13;83.59;96329.95;1788878;79;20943;-78
2021/08/28 02:57:41;;;;;;;2.22;0.70;;;;;;;10.12;83.79;96323.16;1813127;78;20995;-78
2021/08/28 03:00:08;;;;;;;2.20;0.70;;;;;;;10.12;84.08;96324.45;1808188;78;21379;-78
2021/08/28 03:02:34;;;;;;;1.50;1.40;;;;;;;10.13;84.17;96323.47;1804694;78;20983;-79
2021/08/28 03:05:00;;;;;;;4.67;0.60;;;;;;;10.16;84.18;96327.00;1723320;78;21025;-79
2021/08/28 03:07:26;;;;;;;1.05;0.80;;;;;;;10.17;83.86;96328.61;1804427;78;21011;-78
2021/08/28 03:09:53;;;;;;;0.70;0.50;;;;;;;10.16;83.97;96327.00;1767262;80;21024;-79
2021/08/28 03:12:18;;;;;;;2.45;0.80;;;;;;;10.14;83.92;96327.18;1740756;81;20944;-80
2021/08/28 03:14:45;;;;;;;0.90;0.60;;;;;;;10.12;84.07;96322.66;1747569;80;21362;-81
2021/08/28 03:17:11;;;;;;;1.00;0.53;;;;;;;10.10;84.27;96323.34;1745536;81;21026;-81
2021/08/28 03:19:39;;;;;;;0.55;0.50;;;;;;;10.11;84.22;96326.74;1743404;80;22196;-81
2021/08/28 03:22:05;;;;;;;0.40;0.37;;;;;;;10.11;84.23;96322.36;1772114;79;21004;-80
2021/08/28 03:24:31;;;;;;;0.90;0.50;;;;;;;10.13;84.29;96316.48;1749163;81;21420;-81
2021/08/28 03:26:57;;;;;;;1.10;0.70;;;;;;;10.14;84.00;96311.60;1734708;80;21004;-80
2021/08/28 03:29:23;;;;;;;1.57;0.70;;;;;;;10.12;84.15;96311.48;1811364;78;20972;-80
2021/08/28 03:31:50;;;;;;;1.07;0.90;;;;;;;10.11;84.22;96314.56;1803394;78;20968;-80
2021/08/28 03:34:16;;;;;;;1.07;0.47;;;;;;;10.10;84.31;96316.05;1803836;78;21339;-80
2021/08/28 03:36:42;;;;;;;0.50;0.50;;;;;;;10.10;84.31;96314.25;1807224;78;20962;-80
2021/08/28 03:39:08;;;;;;;1.00;0.78;;;;;;;10.09;84.18;96313.95;1805386;78;20942;-80
2021/08/28 03:41:33;;;;;;;0.60;0.50;;;;;;;10.11;84.15;96311.97;1806308;78;21363;-80
2021/08/28 03:43:59;;;;;;;0.60;0.60;;;;;;;10.11;84.13;96313.27;1804478;78;20987;-81
2021/08/28 03:46:25;;;;;;;0.60;0.60;;;;;;;10.11;84.18;96309.87;1818841;78;20940;-80
2021/08/28 03:48:50;;;;;;;1.05;0.50;;;;;;;10.09;84.12;96308.75;1804201;78;21384;-81
2021/08/28 03:51:16;;;;;;;1.65;0.50;;;;;;;10.07;84.17;96306.80;1799806;78;21051;-81
2021/08/28 03:53:42;;;;;;;2.27;0.50;;;;;;;10.08;84.33;96304.52;1806940;78;21296;-81
2021/08/28 03:56:08;;;;;;;0.57;0.53;;;;;;;10.11;84.21;96304.67;1803183;77;21302;-80
2021/08/28 03:58:34;;;;;;;1.47;0.50;;;;;;;10.13;84.31;96304.80;1729418;80;20905;-81
2021/08/28 04:01:00;;;;;;;0.50;0.50;;;;;;;10.15;84.21;96302.02;1741947;80;21379;-80
2021/08/28 04:03:26;;;;;;;1.00;0.70;;;;;;;10.14;84.28;96298.63;1742342;81;20970;-80
2021/08/28 04:05:52;;;;;;;1.32;0.60;;;;;;;10.14;84.49;96301.71;1736286;80;21016;-80
2021/08/28 04:08:18;;;;;;;0.82;0.40;;;;;;;10.14;84.45;96300.41;1710392;82;21304;-80
2021/08/28 04:10:43;;;;;;;2.05;0.57;;;;;;;10.15;84.57;96305.42;1686202;83;20977;-81
2021/08/28 04:13:09;;;;;;;1.32;0.70;;;;;;;10.16;84.64;96303.14;1713592;82;20969;-81
2021/08/28 04:15:36;;;;;;;1.35;0.53;;;;;;;10.18;84.59;96305.55;1710127;82;21022;-80
2021/08/28 04:18:01;;;;;;;1.32;0.80;;;;;;;10.23;84.59;96305.83;1709584;82;21420;-81
2021/08/28 04:20:27;;;;;;;2.27;0.60;;;;;;;10.27;84.51;96302.41;1709380;83;21354;-81
2021/08/28 04:22:53;;;;;;;1.27;0.40;;;;;;;10.31;84.62;96306.25;1715436;82;21071;-80
2021/08/28 04:25:19;;;;;;;0.47;0.40;;;;;;;10.31;84.62;96308.84;1709661;82;21113;-80
2021/08/28 04:27:44;;;;;;;0.72;0.60;;;;;;;10.30;84.68;96307.23;1710234;82;20954;-80
2021/08/28 04:30:11;;;;;;;0.40;0.37;;;;;;;10.32;84.75;96315.64;1713234;82;20915;-81
2021/08/28 04:32:37;;;;;;;0.55;0.55;;;;;;;10.38;84.77;96312.31;1738689;81;21057;-80
2021/08/28 04:35:03;;;;;;;2.30;0.80;;;;;;;10.48;84.73;96314.14;1722481;81;21403;-81
2021/08/28 04:37:29;;;;;;;1.00;0.60;;;;;;;10.54;84.71;96315.99;1742135;80;21330;-81
2021/08/28 04:39:54;;;;;;;1.37;0.47;;;;;;;10.57;84.66;96310.92;1723184;81;20950;-80
2021/08/28 04:42:20;;;;;;;0.80;0.50;;;;;;;10.60;84.54;96317.08;1750731;81;20912;-80
2021/08/28 04:44:46;;;;;;;0.47;0.40;;;;;;;10.60;84.30;96317.08;1715957;82;21337;-81
2021/08/28 04:47:11;;;;;;;0.50;0.40;;;;;;;10.60;84.27;96322.27;1743089;80;21335;-80
2021/08/28 04:49:37;;;;;;;2.33;0.70;;;;;;;10.61;84.16;96325.18;1742662;81;21044;-80
2021/08/28 04:52:05;;;;;;;2.27;0.72;;;;;;;10.60;84.20;96326.98;1741592;80;20978;-81
2021/08/28 04:54:31;;;;;;;0.90;0.53;;;;;;;10.58;84.21;96321.66;1736436;81;20964;-81
2021/08/28 04:56:57;;;;;;;0.57;0.47;;;;;;;10.57;84.54;96322.12;1704447;82;21004;-81
2021/08/28 04:59:23;;;;;;;1.00;0.40;;;;;;;10.58;84.51;96323.76;1692123;83;21407;-81
2021/08/28 05:01:49;;;;;;;1.00;0.30;;;;;;;10.57;84.46;96326.02;1739361;81;20933;-80
2021/08/28 05:04:14;;;;;;;0.78;0.60;;;;;;;10.53;84.44;96327.37;1806796;78;20965;-80
2021/08/28 05:06:40;;;;;;;0.55;0.50;;;;;;;10.49;84.66;96331.33;1813150;78;20971;-80
2021/08/28 05:09:06;;;;;;;1.62;0.50;;;;;;;10.49;84.79;96328.73;1810757;78;21308;-80
2021/08/28 05:11:32;;;;;;;0.50;0.42;;;;;;;10.45;85.03;96335.29;1801430;78;20938;-80
2021/08/28 05:13:58;;;;;;;1.67;0.50;;;;;;;10.42;84.92;96329.97;1806197;78;20988;-80
2021/08/28 05:16:24;;;;;;;1.52;0.42;;;;;;;10.42;85.05;96338.25;1807706;78;21012;-80
2021/08/28 05:18:49;;;;;;;0.40;0.40;;;;;;;10.43;84.96;96332.07;1808263;78;20983;-80
2021/08/28 05:21:15;;;;;;;1.07;0.50;;;;;;;10.43;84.91;96328.17;1804801;78;20989;-80
2021/08/28 05:23:41;;;;;;;0.50;0.50;;;;;;;10.43;85.13;96328.17;1806145;78;21313;-80
2021/08/28 05:26:07;;;;;;;1.22;0.50;;;;;;;10.42;85.27;96331.77;1807196;78;20933;-81
2021/08/28 05:28:32;;;;;;;0.72;0.40;;;;;;;10.42;85.56;96328.67;1808434;78;21020;-80
2021/08/28 05:30:58;;;;;;;1.35;0.45;;;;;;;10.45;85.63;96330.09;1806726;78;21001;-80
2021/08/28 05:33:24;;;;;;;0.50;0.40;;;;;;;10.49;85.85;96327.44;1812989;78;20996;-80
2021/08/28 05:35:50;;;;;;;1.70;0.40;;;;;;;10.53;85.99;96328.67;1807034;78;20999;-80
2021/08/28 05:38:16;;;;;;;1.42;0.33;;;;;;;10.58;86.14;96318.56;1805995;78;21004;-80
2021/08/28 05:40:41;;;;;;;1.37;0.50;;;;;;;10.64;86.16;96325.61;1802146;78;21352;-80
2021/08/28 05:43:07;;;;;;;0.60;0.50;;;;;;;10.71;86.22;96322.58;1806373;78;20917;-80
2021/08/28 05:45:33;;;;;;;0.45;0.42;;;;;;;10.74;86.26;96318.84;1804784;78;20940;-81
2021/08/28 05:47:59;;;;;;;0.50;0.42;;;;;;;10.78;86.29;96313.57;1804203;78;20960;-81
2021/08/28 05:50:25;;;;;;;0.62;0.42;;;;;;;10.84;86.23;96319.32;1803434;78;20956;-80
2021/08/28 05:52:52;;;;;;;0.47;0.30;;;;;;;10.90;86.45;96313.41;1804820;78;21346;-80
2021/08/28 05:55:18;;;;;;;1.05;0.47;;;;;;;11.02;86.60;96322.30;1805335;78;20944;-80
2021/08/28 05:57:44;;;;;;;0.90;0.40;;;;;;;11.15;86.52;96328.63;1808828;78;22150;-80
2021/08/28 06:00:11;;;;;;;1.85;0.55;;;;;;;11.21;86.49;96329.97;1808885;78;21331;-80
2021/08/28 06:02:38;;;;;;;5.17;0.70;;;;;;;11.25;86.51;96327.82;1811628;78;21013;-80
2021/08/28 06:05:08;;;;;;;0.47;0.47;;;;;;;11.30;86.67;96328.05;1810979;78;21006;-80
2021/08/28 06:07:34;;;;;;;0.45;0.35;;;;;;;11.32;86.63;96330.77;1809524;78;21332;-80
2021/08/28 06:10:00;;;;;;;1.62;0.40;;;;;;;11.36;86.51;96329.40;1807547;78;20956;-80
2021/08/28 06:12:26;;;;;;;0.57;0.55;;;;;;;11.40;86.23;96327.25;1813297;78;20975;-80
2021/08/28 06:14:52;;;;;;;1.47;0.50;;;;;;;11.45;86.12;96320.17;1813663;78;20940;-81
2021/08/28 06:17:17;;;;;;;1.05;0.42;;;;;;;11.49;86.10;96326.11;1814816;78;20964;-81
2021/08/28 06:19:44;;;;;;;0.98;0.50;;;;;;;11.53;86.03;96322.63;1810447;78;21043;-81
2021/08/28 06:22:10;;;;;;;1.60;0.55;;;;;;;11.58;85.99;96325.48;1800560;78;21348;-81
2021/08/28 06:24:35;;;;;;;0.40;0.37;;;;;;;11.65;86.49;96328.93;1818633;78;20925;-81
2021/08/28 06:27:03;;;;;;;0.90;0.40;;;;;;;11.77;86.41;96326.12;1812246;78;20957;-81
2021/08/28 06:29:29;;;;;;;0.82;0.40;;;;;;;11.86;86.55;96329.39;1805995;78;20942;-80
2021/08/28 06:31:55;;;;;;;2.02;1.12;;;;;;;11.92;86.27;96330.75;1819073;78;20960;-81
2021/08/28 06:34:21;;;;;;;1.32;0.70;;;;;;;11.94;86.17;96324.86;1809566;78;21001;-81
2021/08/28 06:36:47;;;;;;;0.40;0.40;;;;;;;11.96;86.12;96329.38;1785839;79;20984;-80
2021/08/28 06:39:13;;;;;;;2.22;0.50;;;;;;;11.97;85.91;96328.38;1801832;78;21316;-81
2021/08/28 06:41:38;;;;;;;0.47;0.40;;;;;;;12.00;85.77;96320.67;1797690;78;20965;-80
2021/08/28 06:44:04;;;;;;;1.98;0.40;;;;;;;12.04;85.78;96323.22;1804204;78;21011;-80
2021/08/28 06:46:30;;;;;;;1.67;0.40;;;;;;;12.08;85.62;96319.23;1809225;78;20917;-80
2021/08/28 06:48:57;;;;;;;0.47;0.47;;;;;;;12.14;85.42;96316.34;1810786;78;21280;-80
2021/08/28 06:51:23;;;;;;;1.35;0.45;;;;;;;12.18;85.33;96324.88;1798541;78;20957;-80
2021/08/28 06:53:49;;;;;;;1.02;0.30;;;;;;;12.21;85.11;96319.80;1814388;78;20924;-80
2021/08/28 06:56:17;;;;;;;0.90;0.57;;;;;;;12.23;84.90;96325.13;1817898;78;21319;-80
2021/08/28 06:58:43;;;;;;;0.88;0.50;;;;;;;12.26;84.70;96323.42;1813970;78;20994;-80
2021/08/28 07:01:08;;;;;;;1.62;0.40;;;;;;;12.34;84.57;96326.35;1805136;78;21318;-80
2021/08/28 07:03:34;;;;;;;0.88;0.60;;;;;;;12.37;84.25;96325.19;1809515;78;20921;-80
2021/08/28 07:06:00;;;;;;;1.57;0.50;;;;;;;12.41;84.50;96323.30;1799756;78;20980;-79
2021/08/28 07:08:26;;;;;;;1.07;0.68;;;;;;;12.46;84.65;96320.09;1782870;79;20898;-81
2021/08/28 07:10:51;;;;;;;0.80;0.60;;;;;;;12.48;84.68;96321.50;1804329;78;21300;-79
2021/08/28 07:13:18;;;;;;;0.65;0.40;;;;;;;12.52;84.64;96322.72;1807672;77;21024;-79
2021/08/28 07:15:43;;;;;;;0.93;0.50;;;;;;;12.57;84.72;96319.55;1809669;78;20977;-79
2021/08/28 07:18:10;;;;;;;1.02;0.53;;;;;;;12.61;84.35;96325.47;1804785;78;20977;-79
2021/08/28 07:20:36;;;;;;;2.55;0.55;;;;;;;12.64;83.99;96325.57;1808200;78;21309;-79
2021/08/28 07:23:02;;;;;;;1.70;0.75;;;;;;;12.68;84.12;96325.98;1809867;78;21007;-79
2021/08/28 07:25:28;;;;;;;0.60;0.57;;;;;;;12.71;84.04;96325.11;1810684;78;20918;-79
2021/08/28 07:27:54;;;;;;;1.30;0.93;;;;;;;12.76;84.22;96320.60;1808247;78;20920;-79
2021/08/28 07:30:19;;;;;;;1.40;0.78;;;;;;;12.84;83.54;96324.31;1805257;78;20965;-79
2021/08/28 07:32:45;;;;;;;9.90;5.28;;;;;;;12.96;82.55;96323.25;1802721;78;21305;-79
2021/08/28 07:35:11;;;;;;;5.75;1.50;;;;;;;13.09;81.62;96328.00;1809566;78;20949;-79
2021/08/28 07:37:37;;;;;;;1.07;0.72;;;;;;;13.20;81.11;96324.84;1807616;78;20970;-79
2021/08/28 07:40:05;;;;;;;2.05;0.60;;;;;;;13.29;82.60;96322.83;1812127;78;21319;-79
2021/08/28 07:42:30;;;;;;;1.60;0.50;;;;;;;13.34;83.37;96328.74;1811943;78;21001;-79
2021/08/28 07:44:56;;;;;;;1.70;0.80;;;;;;;13.39;83.51;96330.27;1809527;77;21283;-79
2021/08/28 07:47:22;;;;;;;0.95;0.60;;;;;;;13.47;82.88;96335.28;1806378;78;21412;-78
2021/08/28 07:49:48;;;;;;;2.40;1.40;;;;;;;13.55;81.20;96340.81;1806109;78;20956;-79
2021/08/28 07:52:17;;;;;;;2.22;1.37;;;;;;;13.63;79.33;96332.27;1809382;78;21009;-79
2021/08/28 07:54:41;;;;;;;0.85;0.70;;;;;;;13.73;79.03;96335.28;1806501;78;21275;-79
2021/08/28 07:57:07;;;;;;;1.15;0.85;;;;;;;13.83;80.90;96333.58;1804808;78;21307;-79
2021/08/28 07:59:33;;;;;;;1.98;0.80;;;;;;;13.84;79.21;96337.80;1805245;78;20941;-79
2021/08/28 08:01:59;;;;;;;1.25;0.50;;;;;;;13.83;79.36;96336.19;1801581;78;21064;-79
2021/08/28 08:04:24;;;;;;;1.45;0.70;;;;;;;13.88;80.31;96336.88;1798564;78;20921;-79
2021/08/28 08:06:50;;;;;;;1.07;0.70;;;;;;;13.84;80.85;96336.48;1804050;78;21316;-79
2021/08/28 08:09:17;;;;;;;2.02;0.68;;;;;;;13.79;81.50;96338.38;1805690;78;21004;-79
2021/08/28 08:11:42;;;;;;;0.82;0.70;;;;;;;13.75;80.79;96338.48;1812912;78;21295;-79
2021/08/28 08:14:08;;;;;;;1.52;0.70;;;;;;;13.71;79.74;96338.60;1809978;78;21312;-79
2021/08/28 08:16:34;;;;;;;1.95;0.70;;;;;;;13.70;77.96;96338.80;1805658;78;20965;-79
2021/08/28 08:19:00;;;;;;;1.00;0.60;;;;;;;13.70;80.08;96340.11;1805943;78;21319;-79
2021/08/28 08:21:25;;;;;;;1.22;0.60;;;;;;;13.63;81.02;96334.87;1797437;78;21296;-79
2021/08/28 08:23:51;;;;;;;0.75;0.53;;;;;;;13.58;81.48;96338.60;1796646;78;20975;-79
2021/08/28 08:26:17;;;;;;;1.45;0.60;;;;;;;13.57;81.65;96336.20;1796447;79;20905;-79
2021/08/28 08:28:42;;;;;;;1.00;0.60;;;;;;;13.58;81.86;96339.10;1804095;78;21354;-79
2021/08/28 08:31:08;;;;;;;2.22;0.72;;;;;;;13.52;81.98;96343.33;1809939;78;20949;-79
2021/08/28 08:33:34;;;;;;;2.25;0.80;;;;;;;13.46;82.20;96338.39;1807924;78;20919;-79
2021/08/28 08:35:59;;;;;;;0.93;0.60;;;;;;;13.43;82.60;96339.30;1807792;78;21347;-79
2021/08/28 08:38:25;;;;;;;1.12;0.75;;;;;;;13.51;83.18;96336.51;1805943;78;20940;-79
2021/08/28 08:40:51;;;;;;;1.62;0.50;;;;;;;13.65;82.85;96335.97;1811338;78;20969;-79
2021/08/28 08:43:17;;;;;;;0.75;0.55;;;;;;;13.67;83.34;96338.71;1810444;78;21348;-79
2021/08/28 08:45:44;;;;;;;4.85;1.30;;;;;;;13.67;83.11;96340.02;1802120;78;21043;-79
2021/08/28 08:48:10;;;;;;;1.42;0.90;;;;;;;13.67;83.32;96336.09;1798767;78;20922;-79
2021/08/28 08:50:36;;;;;;;2.65;1.20;;;;;;;13.66;83.37;96337.08;1792079;78;21033;-79
2021/08/28 08:53:03;;;;;;;1.02;0.75;;;;;;;13.68;82.96;96342.13;1802937;79;21086;-79
2021/08/28 08:55:30;;;;;;;3.50;0.90;;;;;;;13.67;83.25;96337.41;1802180;78;21002;-79
2021/08/28 08:57:55;;;;;;;0.80;0.80;;;;;;;13.67;83.11;96341.33;1805960;78;21359;-79
2021/08/28 09:00:21;;;;;;;1.55;0.70;;;;;;;13.69;83.20;96339.81;1780033;78;21023;-79
2021/08/28 09:02:47;;;;;;;1.00;0.78;;;;;;;13.72;83.47;96343.32;1812624;78;21330;-79
2021/08/28 09:05:13;;;;;;;1.65;0.88;;;;;;;13.80;83.87;96343.09;1803493;78;20937;-79
2021/08/28 09:07:39;;;;;;;0.85;0.70;;;;;;;14.09;84.30;96341.86;1810721;78;21001;-79
2021/08/28 09:10:05;;;;;;;1.10;0.80;;;;;;;14.33;84.21;96342.52;1805098;78;20917;-79
2021/08/28 09:12:36;;;;;;;1.82;1.10;;;;;;;14.40;82.54;96339.86;1811522;78;20931;-79
2021/08/28 09:15:05;;;;;;;1.62;1.25;;;;;;;14.50;81.08;96340.78;1804638;78;21896;-79
2021/08/28 09:17:31;;;;;;;2.58;1.30;;;;;;;14.51;79.90;96336.65;1803516;78;20936;-79
2021/08/28 09:19:56;;;;;;;1.25;0.88;;;;;;;14.53;80.19;96341.16;1814285;78;20973;-79
2021/08/28 09:22:26;;;;;;;1.82;1.00;;;;;;;14.58;81.12;96340.53;1803063;78;20971;-80
2021/08/28 09:24:51;;;;;;;1.35;0.88;;;;;;;14.62;81.42;96337.79;1806724;78;20980;-80
2021/08/28 09:27:42;;;;;;;1.90;1.22;;;;;;;14.84;81.79;96335.70;1814019;78;20963;-80
2021/08/28 09:30:32;;;;;;;2.95;1.20;;;;;;;15.13;79.21;96337.75;1812785;78;21012;-80
2021/08/28 09:33:00;;;;;;;2.17;1.20;;;;;;;15.32;78.84;96329.46;1804255;78;20922;-80
2021/08/28 09:35:29;;;;;;;2.17;1.15;;;;;;;15.39;80.46;96335.95;1816853;78;20979;-80
2021/08/28 09:38:08;;;;;;;3.35;1.02;;;;;;;15.52;79.34;96335.34;1775138;80;21010;-80
2021/08/28 09:40:50;;;;;;;1.20;1.00;;;;;;;15.60;77.00;96336.91;1771478;80;20957;-80
2021/08/28 09:43:19;;;;;;;2.30;1.07;;;;;;;15.69;75.92;96344.01;1757032;80;20963;-80
2021/08/28 09:45:46;;;;;;;1.32;0.93;;;;;;;15.82;77.64;96338.16;1775653;80;21044;-80
2021/08/28 09:48:13;;;;;;;1.10;0.80;;;;;;;15.99;79.03;96335.78;1772777;80;20939;-80
2021/08/28 09:50:45;;;;;;;1.25;0.90;;;;;;;16.10;77.26;96338.97;1815420;78;21335;-80
2021/08/28 09:53:18;;;;;;;1.42;1.07;;;;;;;16.17;77.19;96335.80;1800855;78;20984;-80
2021/08/28 09:55:44;;;;;;;1.35;0.98;;;;;;;16.27;77.04;96336.61;1812218;78;21376;-80
2021/08/28 09:58:11;;;;;;;2.08;1.30;;;;;;;16.32;76.95;96343.81;1817524;78;21024;-80
2021/08/28 10:00:44;;;;;;;31.15;27.90;;;;;;;16.39;77.53;96343.22;1814768;78;20979;-80
2021/08/28 10:03:10;;;;;;;12.23;11.20;;;;;;;16.41;77.42;96344.59;1803191;78;21060;-80
2021/08/28 10:05:38;;;;;;;3.50;1.75;;;;;;;16.45;75.41;96349.72;1814111;78;21017;-80
2021/08/28 10:08:07;;;;;;;4.08;1.72;;;;;;;16.45;74.71;96344.47;1813676;78;21014;-80
2021/08/28 10:10:35;;;;;;;3.47;2.75;;;;;;;16.51;74.75;96336.23;1771889;81;20956;-80
2021/08/28 10:13:03;;;;;;;4.37;2.90;;;;;;;16.53;75.25;96336.80;1768635;80;20952;-80
2021/08/28 10:15:31;;;;;;;2.85;2.12;;;;;;;16.58;76.69;96336.94;1774784;80;20982;-80
2021/08/28 10:17:57;;;;;;;2.55;2.02;;;;;;;16.57;72.79;96335.84;1772202;80;21329;-80
2021/08/28 10:20:23;;;;;;;2.65;1.80;;;;;;;16.59;73.54;96338.54;1750125;80;20956;-80
2021/08/28 10:22:53;;;;;;;2.83;1.40;;;;;;;16.69;73.35;96337.55;1727138;81;21044;-80
2021/08/28 10:25:21;;;;;;;2.90;1.50;;;;;;;16.78;72.74;96329.67;1747052;80;21003;-80
2021/08/28 10:27:47;;;;;;;2.10;1.90;;;;;;;16.89;73.05;96337.29;1747599;80;21012;-80
2021/08/28 10:30:13;;;;;;;2.10;1.90;;;;;;;16.97;72.98;96338.81;1739233;81;21028;-80
2021/08/28 10:32:42;;;;;;;1.55;1.45;;;;;;;17.06;74.49;96340.09;1744117;81;20981;-80
2021/08/28 10:35:10;;;;;;;2.00;1.40;;;;;;;17.17;75.27;96336.71;1747371;80;20984;-80
2021/08/28 10:37:36;;;;;;;1.90;1.10;;;;;;;17.27;73.85;96340.92;1749279;80;20958;-80
2021/08/28 10:40:09;;;;;;;1.82;1.60;;;;;;;17.29;72.30;96347.25;1747096;80;21350;-80
2021/08/28 10:42:36;;;;;;;1.52;1.25;;;;;;;17.39;73.25;96352.74;1737944;81;20942;-80
2021/08/28 10:45:02;;;;;;;2.55;1.10;;;;;;;17.49;71.77;96351.69;1806493;78;21269;-80
2021/08/28 10:47:29;;;;;;;1.80;1.12;;;;;;;17.55;70.43;96353.92;1783279;79;20937;-80
2021/08/28 10:50:05;;;;;;;2.02;1.42;;;;;;;17.56;70.98;96351.58;1811873;78;21003;-80
2021/08/28 10:52:34;;;;;;;2.72;1.22;;;;;;;17.54;71.77;96353.12;1808316;78;20966;-80
2021/08/28 10:55:12;;;;;;;2.20;1.40;;;;;;;17.52;71.09;96353.06;1780127;79;20992;-80
2021/08/28 10:57:38;;;;;;;3.27;1.75;;;;;;;17.51;70.28;96351.47;1804797;78;20917;-80
2021/08/28 11:00:17;;;;;;;2.60;1.77;;;;;;;17.62;69.83;96350.69;1802500;78;21309;-81
2021/08/28 11:02:53;;;;;;;4.58;2.25;;;;;;;17.62;69.39;96348.86;1797486;78;21422;-80
2021/08/28 11:05:25;;;;;;;1.90;1.42;;;;;;;17.56;68.61;96348.44;1808420;77;21376;-80
2021/08/28 11:07:51;;;;;;;2.40;1.40;;;;;;;17.55;68.34;96348.15;1736978;81;21015;-81
2021/08/28 11:10:25;;;;;;;2.52;1.45;;;;;;;17.57;67.76;96354.48;1765466;80;20963;-80
2021/08/28 11:12:59;;;;;;;2.58;1.60;;;;;;;17.58;67.78;96354.80;1768629;80;21931;-80
2021/08/28 11:15:32;;;;;;;2.35;1.70;;;;;;;17.63;67.81;96348.34;1803705;78;20981;-80
2021/08/28 11:18:04;;;;;;;2.90;1.50;;;;;;;17.72;68.64;96348.31;1804682;78;21013;-81
2021/08/28 11:20:41;;;;;;;2.22;1.30;;;;;;;17.76;69.38;96346.06;1796545;78;21386;-81
2021/08/28 11:23:12;;;;;;;1.25;1.15;;;;;;;17.74;69.46;96348.91;1806615;78;21406;-81
2021/08/28 11:25:40;;;;;;;;;;;;;;;17.83;67.99;96345.42;1803947;78;21331;-81
2021/08/28 11:28:06;;;;;;;2.20;1.30;;;;;;;18.03;67.94;96344.56;1797661;78;20103;-81
2021/08/28 11:30:50;;;;;;;2.02;1.40;;;;;;;17.96;67.30;96348.63;1805950;78;20944;-81
2021/08/28 11:33:29;;;;;;;1.87;1.10;;;;;;;17.94;67.70;96346.75;1761423;80;20943;-81
2021/08/28 11:36:01;;;;;;;1.40;1.07;;;;;;;17.93;68.64;96356.98;1769461;81;20994;-81